Sao Vicente Ferrer, Brazil
Current Conditions -  °F | °C
As of 10:00 AM on Thursday 30 Oct 2014 (Local Time) from SBKG Reporting Station
Broken Clouds Broken Clouds  
Wind Chill: 84°   Ceiling: 3000
Heat Index: 85°   Visibility: 6mi
Dew Point: 63°   Wind: 16mph
Humidity: 48%   Direction: 120°ESE
Pressure: 30.03"   Gusts: NA
Location:  7.59°S, 35.49°W
Report Text: SBKG 301300Z 12014KT 9999 BKN030 29/17 Q1017
Loading
Personal Weather Stations






























Interactive Weather Map
Tropical Storm Tracking
New forecast layout! Learn more

10-Day Weather Forecast

Advertisements
Track Severe Weather on mobile